Time;durP1;ratioP1;P1;durP2;ratioP2;P2;SDS_P1;SDS_P2;PMS_P1;PMS_P2;Temp;Humidity;BMP_temperature;BMP_pressure;BME280_temperature;BME280_humidity;BME280_pressure;Samples;Min_cycle;Max_cycle;Signal;HPM_P1;HPM_P2
2022/10/04 00:05:09;;;;;;;7.90;3.10;;;;;;;9.44;100.00;98823.13;221688;1274;26487;-80
2022/10/04 00:12:00;;;;;;;;;;;;;;;;;;;;;
2022/10/04 00:26:02;;;;;;;9.50;2.60;;;;;;;9.44;100.00;98812.96;221302;1274;22542;-83
2022/10/04 00:33:09;;;;;;;19.10;3.40;;;;;;;9.47;100.00;98812.36;221083;1276;22557;-83
2022/10/04 00:46:48;;;;;;;9.10;2.90;;;;;;;9.51;100.00;98802.96;222787;1270;22554;-82
2022/10/04 00:53:51;;;;;;;;;;;;;;;;;;;;;
2022/10/04 01:00:35;;;;;;;;;;;;;;;;;;;;;
2022/10/04 01:07:27;;;;;;;;;;;;;;;;;;;;;
2022/10/04 01:14:38;;;;;;;;;;;;;;;;;;;;;
2022/10/04 01:22:01;;;;;;;8.10;3.50;;;;;;;9.53;100.00;98795.88;222652;1267;24293;-83
2022/10/04 01:36:00;;;;;;;9.00;3.40;;;;;;;9.46;100.00;98791.03;221854;1271;25385;-83
2022/10/04 01:42:54;;;;;;;9.30;3.90;;;;;;;9.45;100.00;98791.41;221464;1275;22569;-83
2022/10/04 01:49:51;;;;;;;12.40;3.50;;;;;;;9.45;100.00;98792.70;218069;1272;5390631;-82
2022/10/04 01:56:46;;;;;;;;;;;;;;;;;;;;;
2022/10/04 02:03:55;;;;;;;;;;;;;;;;;;;;;
2022/10/04 02:11:04;;;;;;;7.00;2.40;;;;;;;9.44;100.00;98789.53;220905;1274;23165;-82
2022/10/04 02:24:23;;;;;;;8.50;3.00;;;;;;;9.45;100.00;98790.49;220405;1285;24126;-81
2022/10/04 02:38:10;;;;;;;13.10;3.10;;;;;;;9.51;100.00;98794.23;221462;1274;24134;-82
2022/10/04 02:45:21;;;;;;;;;;;;;;;;;;;;;
2022/10/04 02:52:34;;;;;;;12.90;2.90;;;;;;;9.54;100.00;98788.33;220506;1277;22557;-81
2022/10/04 02:59:36;;;;;;;12.80;3.00;;;;;;;9.55;100.00;98797.05;221891;1275;22717;-81
2022/10/04 03:06:31;;;;;;;;;;;;;;;;;;;;;
2022/10/04 03:20:43;;;;;;;;;;;;;;;;;;;;;
2022/10/04 03:27:13;;;;;;;9.70;2.60;;;;;;;9.51;100.00;98805.14;220173;1281;22710;-82
2022/10/04 03:34:06;;;;;;;15.30;3.00;;;;;;;9.52;100.00;98805.89;220813;1280;24307;-81
2022/10/04 03:40:35;;;;;;;;;;;;;;;;;;;;;
2022/10/04 03:47:37;;;;;;;12.60;3.40;;;;;;;9.48;100.00;98802.94;221650;1274;26083;-82
2022/10/04 03:54:30;;;;;;;;;;;;;;;;;;;;;
2022/10/04 04:01:05;;;;;;;8.10;3.00;;;;;;;9.41;100.00;98802.19;221627;1273;23828;-82
2022/10/04 04:07:41;;;;;;;16.00;3.60;;;;;;;9.40;100.00;98803.48;221643;1274;24339;-83
2022/10/04 04:14:44;;;;;;;8.80;2.70;;;;;;;9.31;100.00;98805.25;221794;1273;22543;-81
2022/10/04 04:21:19;;;;;;;;;;;;;;;;;;;;;
2022/10/04 04:27:40;;;;;;;;;;;;;;;;;;;;;
2022/10/04 04:34:30;;;;;;;10.10;3.10;;;;;;;8.98;100.00;98820.88;220282;1285;24315;-81
2022/10/04 04:40:44;;;;;;;;;;;;;;;;;;;;;
2022/10/04 04:47:25;;;;;;;;;;;;;;;;;;;;;
2022/10/04 04:54:06;;;;;;;9.00;3.30;;;;;;;8.70;100.00;98831.70;221400;1277;23844;-80
2022/10/04 05:00:27;;;;;;;11.30;3.80;;;;;;;8.60;100.00;98840.76;221380;1277;24250;-80
2022/10/04 05:07:28;;;;;;;11.30;3.50;;;;;;;8.55;100.00;98846.02;221297;1277;22551;-80
2022/10/04 05:13:40;;;;;;;14.70;3.10;;;;;;;8.65;100.00;98850.61;220781;1277;22573;-82
2022/10/04 05:20:28;;;;;;;10.00;2.80;;;;;;;8.86;100.00;98862.71;220907;1279;24312;-80
2022/10/04 05:27:27;;;;;;;12.10;2.90;;;;;;;9.11;100.00;98863.65;220989;1274;24406;-80
2022/10/04 05:41:01;;;;;;;8.10;2.90;;;;;;;9.43;100.00;98875.11;221537;1273;22876;-80
2022/10/04 05:47:57;;;;;;;13.80;4.00;;;;;;;9.47;100.00;98888.13;222484;1271;24264;-81
2022/10/04 05:54:52;;;;;;;;;;;;;;;;;;;;;
2022/10/04 06:01:54;;;;;;;;;;;;;;;;;;;;;
2022/10/04 06:08:42;;;;;;;7.80;3.10;;;;;;;9.78;100.00;98907.11;221977;1276;25305;-81
2022/10/04 06:15:23;;;;;;;7.30;3.50;;;;;;;9.84;100.00;98913.06;220602;1276;22592;-79
2022/10/04 06:22:32;;;;;;;;;;;;;;;;;;;;;
2022/10/04 06:36:33;;;;;;;9.50;2.90;;;;;;;10.15;100.00;98931.96;220222;1285;25285;-80
2022/10/04 06:50:40;;;;;;;5.40;2.30;;;;;;;10.34;100.00;98952.33;220952;1280;22580;-80
2022/10/04 06:57:36;;;;;;;9.70;2.60;;;;;;;10.36;100.00;98968.77;221140;1279;24633;-81
2022/10/04 07:04:41;;;;;;;6.90;2.40;;;;;;;10.51;100.00;98978.75;220554;1280;22578;-78
2022/10/04 07:11:55;;;;;;;7.30;2.60;;;;;;;10.69;100.00;98989.13;220258;1281;24400;-79
2022/10/04 07:18:55;;;;;;;;;;;;;;;;;;;;;
2022/10/04 07:33:16;;;;;;;;;;;;;;;;;;;;;
2022/10/04 07:40:03;;;;;;;;;;;;;;;;;;;;;
2022/10/04 07:47:15;;;;;;;;;;;;;;;;;;;;;
2022/10/04 08:00:43;;;;;;;7.10;1.70;;;;;;;11.16;100.00;99027.05;221386;1277;23263;-82
2022/10/04 08:07:47;;;;;;;;;;;;;;;;;;;;;
2022/10/04 08:15:04;;;;;;;;;;;;;;;;;;;;;
2022/10/04 08:21:40;;;;;;;3.00;1.20;;;;;;;11.04;100.00;99052.11;221588;1277;22582;-80
2022/10/04 08:35:42;;;;;;;;;;;;;;;;;;;;;
2022/10/04 08:43:00;;;;;;;7.50;1.70;;;;;;;11.69;100.00;99072.83;221446;1279;24438;-79
2022/10/04 08:50:23;;;;;;;5.90;1.60;;;;;;;11.90;100.00;99075.77;221280;1279;22562;-80
2022/10/04 08:56:55;;;;;;;;;;;;;;;;;;;;;
2022/10/04 09:03:25;;;;;;;;;;;;;;;;;;;;;
2022/10/04 09:09:46;;;;;;;;;;;;;;;;;;;;;
2022/10/04 09:16:27;;;;;;;;;;;;;;;;;;;;;
2022/10/04 09:23:22;;;;;;;;;;;;;;;;;;;;;
2022/10/04 09:29:49;;;;;;;;;;;;;;;;;;;;;
2022/10/04 09:36:40;;;;;;;3.70;1.30;;;;;;;12.58;98.84;99094.90;221691;1270;24313;-78
2022/10/04 09:43:16;;;;;;;4.10;1.10;;;;;;;12.93;98.80;99093.55;221941;1270;25234;-78
2022/10/04 09:50:12;;;;;;;;;;;;;;;;;;;;;
2022/10/04 09:56:34;;;;;;;3.70;1.00;;;;;;;12.94;94.95;99111.93;222677;1267;22661;-78
2022/10/04 10:17:14;;;;;;;;;;;;;;;;;;;;;
2022/10/04 10:24:02;;;;;;;3.80;1.40;;;;;;;13.13;92.81;99133.02;224075;1267;24378;-83
2022/10/04 10:31:12;;;;;;;;;;;;;;;;;;;;;
2022/10/04 10:37:53;;;;;;;4.70;1.20;;;;;;;13.54;90.83;99141.82;224069;1267;22630;-80
2022/10/04 10:44:25;;;;;;;3.10;1.20;;;;;;;13.70;91.03;99139.50;224263;1267;24756;-79
2022/10/04 10:51:10;;;;;;;2.00;1.00;;;;;;;14.04;90.76;99136.96;223849;1267;22599;-78
2022/10/04 10:56:45;;;;;;;3.90;1.00;;;;;;;14.43;88.94;99133.64;222447;1267;25376;-78
2022/10/04 11:03:52;;;;;;;;;;;;;;;;;;;;;
2022/10/04 11:10:49;;;;;;;;;;;;;;;;;;;;;
2022/10/04 11:17:28;;;;;;;2.90;1.00;;;;;;;14.51;87.60;99151.96;222081;1271;22581;-80
2022/10/04 11:24:03;;;;;;;;;;;;;;;;;;;;;
2022/10/04 11:30:19;;;;;;;;;;;;;;;;;;;;;
2022/10/04 11:36:41;;;;;;;;;;;;;;;;;;;;;
2022/10/04 11:43:24;;;;;;;3.90;1.20;;;;;;;13.91;86.01;99166.52;223680;1271;22658;-81
2022/10/04 11:49:32;;;;;;;3.30;1.10;;;;;;;13.83;85.68;99160.67;223168;1273;24429;-80
2022/10/04 11:55:56;;;;;;;1.80;1.10;;;;;;;13.77;85.53;99163.49;227094;1271;23183;-81
2022/10/04 12:01:43;;;;;;;1.60;0.90;;;;;;;13.82;84.86;99157.40;227410;1273;23180;-81
2022/10/04 12:07:35;;;;;;;3.80;1.40;;;;;;;14.00;84.11;99153.89;227744;1266;22474;-82
2022/10/04 12:14:12;;;;;;;;;;;;;;;;;;;;;
2022/10/04 12:21:29;;;;;;;;;;;;;;;;;;;;;
2022/10/04 12:28:10;;;;;;;;;;;;;;;;;;;;;
2022/10/04 12:34:40;;;;;;;;;;;;;;;;;;;;;
2022/10/04 12:47:17;;;;;;;5.20;1.70;;;;;;;15.71;80.62;99174.30;224202;1267;22948;-77
2022/10/04 12:53:18;;;;;;;3.50;1.20;;;;;;;15.60;80.48;99171.84;223918;1267;25465;-78
2022/10/04 12:59:50;;;;;;;;;;;;;;;;;;;;;
2022/10/04 13:05:36;;;;;;;3.00;1.10;;;;;;;15.38;79.97;99173.17;222376;1267;23351;-78
2022/10/04 13:12:05;;;;;;;5.40;1.20;;;;;;;15.33;79.53;99176.86;222505;1267;23989;-78
2022/10/04 13:19:08;;;;;;;4.50;1.00;;;;;;;15.20;78.93;99176.86;222258;1267;25396;-78
2022/10/04 13:25:57;;;;;;;5.00;1.40;;;;;;;15.22;78.33;99173.27;223036;1267;25406;-75
2022/10/04 13:32:38;;;;;;;;;;;;;;;;;;;;;
2022/10/04 13:38:55;;;;;;;3.30;1.40;;;;;;;15.35;78.35;99177.66;222067;1267;22776;-78
2022/10/04 13:44:42;;;;;;;3.10;1.30;;;;;;;15.39;78.18;99189.88;221707;1267;24428;-76
2022/10/04 13:50:27;;;;;;;3.90;1.30;;;;;;;15.37;77.75;99185.60;221762;1267;22936;-77
2022/10/04 13:57:42;;;;;;;;;;;;;;;;;;;;;
2022/10/04 14:03:22;;;;;;;4.70;1.40;;;;;;;15.31;77.65;99194.58;222056;1267;25246;-79
2022/10/04 14:09:54;;;;;;;;;;;;;;;;;;;;;
2022/10/04 14:16:15;;;;;;;;;;;;;;;;;;;;;
2022/10/04 14:23:07;;;;;;;4.70;1.40;;;;;;;14.94;78.11;99192.72;221626;1274;24187;-79
2022/10/04 14:29:11;;;;;;;3.10;1.50;;;;;;;14.75;78.40;99191.23;220611;1279;22722;-79
2022/10/04 14:35:22;;;;;;;3.60;1.60;;;;;;;14.59;79.00;99194.15;220796;1279;24569;-78
2022/10/04 14:41:31;;;;;;;;;;;;;;;;;;;;;
2022/10/04 14:47:49;;;;;;;2.70;1.60;;;;;;;14.29;79.55;99194.06;221430;1267;22539;-79
2022/10/04 14:54:27;;;;;;;;;;;;;;;;;;;;;
2022/10/04 15:00:59;;;;;;;3.40;1.60;;;;;;;14.01;80.07;99202.83;221745;1267;22566;-80
2022/10/04 15:06:22;;;;;;;;;;;;;;;;;;;;;
2022/10/04 15:11:46;;;;;;;8.50;2.90;;;;;;;13.83;80.43;99217.12;222833;1267;25306;-79
2022/10/04 15:17:24;;;;;;;4.70;2.10;;;;;;;13.75;80.81;99225.99;221899;1267;25413;-77
2022/10/04 15:23:13;;;;;;;4.50;2.10;;;;;;;13.69;80.96;99224.00;221832;1268;22561;-78
2022/10/04 15:28:55;;;;;;;5.20;2.10;;;;;;;13.63;81.00;99232.53;221987;1267;24243;-79
2022/10/04 15:34:45;;;;;;;7.10;2.30;;;;;;;13.52;81.33;99234.22;221780;1267;24907;-77
2022/10/04 15:40:19;;;;;;;7.60;2.40;;;;;;;13.42;81.65;99236.54;221960;1267;25241;-79
2022/10/04 15:46:21;;;;;;;8.20;2.30;;;;;;;13.36;82.00;99243.91;222066;1267;26393;-78
2022/10/04 15:52:08;;;;;;;5.50;2.60;;;;;;;13.31;82.28;99248.69;221529;1268;22535;-79
2022/10/04 15:58:06;;;;;;;5.50;2.40;;;;;;;13.23;82.38;99256.05;221970;1267;25356;-80
2022/10/04 16:04:34;;;;;;;5.50;2.70;;;;;;;13.08;82.73;99255.63;221715;1268;24233;-79
2022/10/04 16:10:06;;;;;;;5.10;3.10;;;;;;;12.94;83.12;99260.31;221772;1267;22531;-79
2022/10/04 16:15:58;;;;;;;6.10;2.80;;;;;;;12.76;83.55;99257.88;221907;1267;24357;-80
2022/10/04 16:21:46;;;;;;;10.90;4.00;;;;;;;12.55;83.85;99262.57;221688;1267;25322;-79
2022/10/04 16:28:18;;;;;;;8.10;3.90;;;;;;;12.34;84.44;99260.11;221646;1268;22718;-78
2022/10/04 16:33:54;;;;;;;5.80;3.00;;;;;;;12.09;84.86;99265.02;221692;1270;22541;-79
2022/10/04 16:51:51;;;;;;;10.50;4.60;;;;;;;11.43;86.18;99280.61;222312;1267;24421;-79
2022/10/04 16:57:18;;;;;;;9.60;4.50;;;;;;;11.19;86.66;99281.66;222105;1268;22556;-79
2022/10/04 17:03:12;;;;;;;11.40;6.40;;;;;;;10.99;87.26;99289.58;222003;1268;22707;-80
2022/10/04 17:09:06;;;;;;;9.10;3.90;;;;;;;10.75;87.47;99292.86;221863;1268;25391;-78
2022/10/04 17:15:28;;;;;;;8.90;4.70;;;;;;;10.56;87.87;99291.26;221800;1268;25448;-79
2022/10/04 17:21:09;;;;;;;12.30;5.70;;;;;;;10.37;88.20;99293.25;221525;1268;22633;-78
2022/10/04 17:27:12;;;;;;;11.40;6.20;;;;;;;10.19;88.58;99295.50;221296;1271;24380;-79
2022/10/04 17:32:50;;;;;;;10.80;5.20;;;;;;;10.03;88.75;99298.16;221908;1268;22761;-79
2022/10/04 17:38:13;;;;;;;12.50;5.80;;;;;;;9.87;89.14;99310.34;221563;1268;22560;-79
2022/10/04 17:43:45;;;;;;;14.20;6.50;;;;;;;9.73;89.71;99318.72;221674;1268;24361;-79
2022/10/04 17:56:03;;;;;;;20.10;9.00;;;;;;;9.47;90.22;99320.05;221694;1268;22507;-79
2022/10/04 18:02:01;;;;;;;20.30;10.00;;;;;;;9.34;90.35;99323.42;221370;1272;22528;-79
2022/10/04 18:08:09;;;;;;;17.20;8.50;;;;;;;9.21;90.68;99325.66;221501;1270;22574;-78
2022/10/04 18:13:45;;;;;;;17.70;9.10;;;;;;;9.06;91.09;99333.27;221631;1267;22559;-77
2022/10/04 18:19:04;;;;;;;;;;;;;;;;;;;;;
2022/10/04 18:24:29;;;;;;;18.50;9.30;;;;;;;8.87;91.56;99342.11;221587;1270;22593;-79
2022/10/04 18:29:59;;;;;;;13.70;7.90;;;;;;;8.78;91.83;99346.40;221820;1271;26505;-78
2022/10/04 18:35:37;;;;;;;;;;;;;;;;;;;;;
2022/10/04 18:48:09;;;;;;;21.40;12.40;;;;;;;8.48;92.62;99356.63;221767;1267;23929;-79
2022/10/04 18:54:29;;;;;;;24.90;11.90;;;;;;;8.35;92.93;99369.73;221881;1270;22554;-79
2022/10/04 19:05:54;;;;;;;38.30;20.20;;;;;;;8.12;93.15;99377.61;221683;1268;24232;-78
2022/10/04 19:11:12;;;;;;;41.50;19.50;;;;;;;8.01;93.42;99382.07;221780;1268;22551;-80
2022/10/04 19:17:18;;;;;;;33.50;17.90;;;;;;;7.90;93.64;99383.11;221813;1268;26367;-79
2022/10/04 19:23:30;;;;;;;32.10;17.50;;;;;;;7.78;93.81;99382.64;220698;1273;22757;-78
2022/10/04 19:28:36;;;;;;;46.00;23.50;;;;;;;7.68;94.43;99388.77;220966;1274;22877;-78
2022/10/04 19:34:13;;;;;;;38.00;18.50;;;;;;;7.62;94.43;99392.00;221137;1274;23077;-78
2022/10/04 19:40:02;;;;;;;34.80;16.80;;;;;;;7.54;94.67;99397.53;221026;1274;23959;-79
2022/10/04 19:46:08;;;;;;;25.00;14.40;;;;;;;7.48;94.69;99402.86;221617;1273;22583;-78
2022/10/04 19:51:58;;;;;;;28.80;13.00;;;;;;;7.43;95.13;99404.25;219985;1278;22712;-78
2022/10/04 19:58:23;;;;;;;24.20;13.30;;;;;;;7.38;95.18;99408.75;220299;1274;22532;-80
2022/10/04 20:03:30;;;;;;;29.10;13.90;;;;;;;7.33;95.40;99409.33;220525;1274;23772;-78
2022/10/04 20:09:46;;;;;;;26.60;14.00;;;;;;;7.28;95.41;99418.60;220260;1278;22538;-79
2022/10/04 20:16:20;;;;;;;;;;;;;;;;;;;;;
2022/10/04 20:21:32;;;;;;;30.60;14.10;;;;;;;7.14;95.79;99418.95;221191;1268;22528;-78
2022/10/04 20:27:19;;;;;;;23.70;14.30;;;;;;;7.09;95.70;99423.67;221530;1268;22568;-78
2022/10/04 20:32:57;;;;;;;26.20;13.90;;;;;;;7.05;96.10;99426.40;222042;1268;23866;-79
2022/10/04 20:38:15;;;;;;;24.70;13.20;;;;;;;7.00;96.33;99432.73;221765;1268;22596;-78
2022/10/04 20:44:00;;;;;;;25.40;13.10;;;;;;;6.98;96.58;99440.02;221678;1268;24355;-79
2022/10/04 20:49:04;;;;;;;28.50;15.70;;;;;;;6.95;97.12;99450.06;222295;1267;22541;-78
2022/10/04 20:54:31;;;;;;;31.60;16.60;;;;;;;6.90;97.21;99456.39;221717;1268;22702;-79
2022/10/04 21:00:04;;;;;;;35.60;17.60;;;;;;;6.85;97.07;99450.62;221639;1268;22581;-79
2022/10/04 21:06:25;;;;;;;34.00;17.80;;;;;;;6.79;97.38;99456.23;221920;1268;24282;-79
2022/10/04 21:12:22;;;;;;;34.90;17.10;;;;;;;6.74;97.39;99454.89;221603;1268;22528;-79
2022/10/04 21:18:44;;;;;;;;;;;;;;;;;;;;;
2022/10/04 21:24:32;;;;;;;29.90;14.70;;;;;;;6.69;97.51;99458.39;221870;1268;22591;-79
2022/10/04 21:30:15;;;;;;;23.40;13.10;;;;;;;6.66;97.99;99465.13;221504;1268;25256;-79
2022/10/04 21:35:43;;;;;;;;;;;;;;;;;;;;;
2022/10/04 21:41:15;;;;;;;32.70;17.40;;;;;;;6.67;98.67;99461.52;221595;1268;22529;-77
2022/10/04 21:46:24;;;;;;;38.40;18.30;;;;;;;6.63;98.38;99452.52;221693;1268;24326;-79
2022/10/04 21:51:26;;;;;;;46.70;21.00;;;;;;;6.59;98.41;99457.20;221532;1268;22697;-79
2022/10/04 21:57:23;;;;;;;;;;;;;;;;;;;;;
2022/10/04 22:03:16;;;;;;;44.20;20.00;;;;;;;6.46;98.54;99462.21;221722;1267;25238;-79
2022/10/04 22:08:52;;;;;;;;;;;;;;;;;;;;;
2022/10/04 22:14:56;;;;;;;;;;;;;;;;;;;;;
2022/10/04 22:21:27;;;;;;;44.40;23.40;;;;;;;6.31;98.62;99450.83;221723;1267;22727;-79
2022/10/04 22:28:02;;;;;;;44.80;23.20;;;;;;;6.27;99.01;99444.76;220613;1272;22617;-79
2022/10/04 22:33:41;;;;;;;43.70;22.80;;;;;;;6.25;99.06;99443.77;220775;1273;22835;-79
2022/10/04 22:39:29;;;;;;;49.80;26.10;;;;;;;6.29;99.90;99447.23;220861;1274;22554;-78
2022/10/04 22:44:40;;;;;;;42.30;21.20;;;;;;;6.42;100.00;99440.61;221721;1268;24211;-78
2022/10/04 22:50:26;;;;;;;44.60;22.90;;;;;;;6.49;100.00;99445.61;221706;1267;25302;-78
2022/10/04 22:56:33;;;;;;;38.90;21.50;;;;;;;6.55;100.00;99457.61;221407;1271;24221;-80
2022/10/04 23:02:06;;;;;;;39.20;20.50;;;;;;;6.58;100.00;99458.72;221262;1270;22556;-79
2022/10/04 23:08:25;;;;;;;34.60;19.50;;;;;;;6.58;100.00;99455.69;221048;1271;22568;-78
2022/10/04 23:14:01;;;;;;;41.10;18.80;;;;;;;6.57;100.00;99457.85;221359;1270;25246;-79
2022/10/04 23:20:19;;;;;;;35.20;18.70;;;;;;;6.54;100.00;99457.39;221293;1270;22537;-78
2022/10/04 23:25:30;;;;;;;43.90;19.80;;;;;;;6.54;100.00;99467.34;221423;1267;22531;-79
2022/10/04 23:32:04;;;;;;;37.10;20.30;;;;;;;6.52;100.00;99469.18;221798;1267;25321;-79
2022/10/04 23:37:41;;;;;;;35.10;19.10;;;;;;;6.52;100.00;99477.06;221854;1267;24319;-79
2022/10/04 23:43:15;;;;;;;32.80;18.50;;;;;;;6.49;100.00;99478.51;221848;1267;22735;-78
2022/10/04 23:48:39;;;;;;;37.30;19.30;;;;;;;6.46;100.00;99474.63;221915;1267;23093;-79
2022/10/04 23:53:50;;;;;;;35.20;18.60;;;;;;;6.42;100.00;99477.00;221788;1267;24282;-79
2022/10/04 23:58:55;;;;;;;33.30;18.50;;;;;;;6.38;100.00;99477.82;221512;1267;25318;-78
